createdAt,value
2023-02-18T14:40:12.293Z,98652.52
2023-02-18T14:41:16.439Z,98648.8
2023-02-18T14:42:20.534Z,98638.33
2023-02-18T14:43:24.714Z,98641.73
2023-02-18T14:44:28.833Z,98642.02
2023-02-18T14:45:32.962Z,98634.2
2023-02-18T14:46:37.166Z,98638.88
2023-02-18T14:47:41.418Z,98628.37
2023-02-18T14:48:45.525Z,98628.49
2023-02-18T14:49:49.643Z,98623.23
2023-02-18T14:50:53.787Z,98620.45
2023-02-18T14:51:57.891Z,98617.89
2023-02-18T14:53:02.028Z,98618.39
2023-02-18T14:54:06.189Z,98622.92
2023-02-18T14:55:10.305Z,98616.23
2023-02-18T14:56:14.463Z,98606.14
2023-02-18T14:57:18.575Z,98605.86
2023-02-18T14:58:22.682Z,98609.95
2023-02-18T14:59:26.799Z,98617.98
2023-02-18T15:00:30.891Z,98619.02
2023-02-18T15:01:35.108Z,98620.45
2023-02-18T15:02:39.328Z,98599.45
2023-02-18T15:03:43.555Z,98592.8
2023-02-18T15:04:47.692Z,98594.42
2023-02-18T15:05:51.770Z,98600.5
2023-02-18T15:06:55.898Z,98595.23
2023-02-18T15:08:00.057Z,98592.27
2023-02-18T15:09:04.210Z,98589.7
2023-02-18T15:10:08.418Z,98584.33
2023-02-18T15:11:12.526Z,98576.3
2023-02-18T15:12:16.649Z,98575.08
2023-02-18T15:13:20.776Z,98543.69
2023-02-18T15:14:24.873Z,98582.41
2023-02-18T15:15:28.982Z,98585.28
2023-02-18T15:16:33.078Z,98589.3
2023-02-18T15:17:37.235Z,98586.83
2023-02-18T15:18:41.343Z,98581.16
2023-02-18T15:19:45.453Z,98570.54
2023-02-18T15:20:49.561Z,98563.64
2023-02-18T15:21:53.716Z,98554.48
2023-02-18T15:22:57.850Z,98564.66
2023-02-18T15:24:01.966Z,98573.33
2023-02-18T15:25:06.086Z,98570.86
2023-02-18T15:26:10.827Z,98562.31
2023-02-18T15:27:15.397Z,98552.22
2023-02-18T15:28:19.547Z,98540.62
2023-02-18T15:29:23.646Z,98538.55
2023-02-18T15:30:28.021Z,98529.3
2023-02-18T15:31:32.544Z,98532.88
2023-02-18T15:32:36.744Z,98535.27
2023-02-18T15:33:40.862Z,98532.8
2023-02-18T15:34:44.950Z,98524.36
2023-02-18T15:35:49.044Z,98528.26
2023-02-18T15:36:53.158Z,98524.89
2023-02-18T15:37:57.293Z,98519.74
2023-02-18T15:39:01.461Z,98517.56
2023-02-18T15:40:05.588Z,98512.21
2023-02-18T15:41:10.301Z,98513.95
2023-02-18T15:42:14.491Z,98519.22
2023-02-18T15:43:18.605Z,98509.94
2023-02-18T15:44:22.729Z,98509.94
2023-02-18T15:45:26.821Z,98497.94
2023-02-18T15:46:31.023Z,98502.77
2023-02-18T15:47:35.236Z,98493
2023-02-18T15:48:39.374Z,98487.65
2023-02-18T15:49:43.529Z,98491.66
2023-02-18T15:50:47.616Z,98474.48
2023-02-18T15:51:51.757Z,98472.82
2023-02-18T15:52:55.884Z,98472.73
2023-02-18T15:54:00.060Z,98467.8
2023-02-18T15:55:04.217Z,98467.88
2023-02-18T15:56:08.334Z,98464.72
2023-02-18T15:57:12.468Z,98466.95
2023-02-18T15:58:16.590Z,98468.92
2023-02-18T15:59:20.734Z,98466.55
2023-02-18T16:00:24.914Z,98462.53
2023-02-18T16:01:29.158Z,98455.44
2023-02-18T16:02:33.527Z,98456.17
2023-02-18T16:03:37.691Z,98446.52
2023-02-18T16:04:41.915Z,98450.62
2023-02-18T16:05:46.062Z,98425.66
2023-02-18T16:06:50.187Z,98441.87
2023-02-18T16:07:54.282Z,98441.46
2023-02-18T16:08:58.443Z,98441.46
2023-02-18T16:10:02.564Z,98443.32
2023-02-18T16:11:06.956Z,98432.34
2023-02-18T16:12:11.617Z,98438.98
2023-02-18T16:13:15.720Z,98440.13
2023-02-18T16:14:20.005Z,98429.42
2023-02-18T16:15:24.115Z,98434.05
2023-02-18T16:16:28.288Z,98433.23
2023-02-18T16:17:32.634Z,98430.77
2023-02-18T16:18:36.747Z,98426.88
2023-02-18T16:19:41.586Z,98431.09
2023-02-18T16:20:54.836Z,98423.39
2023-02-18T16:21:58.990Z,98434.89
2023-02-18T16:23:03.111Z,98432.22
2023-02-18T16:24:07.245Z,98405.72
2023-02-18T16:25:11.347Z,98426.47
2023-02-18T16:26:15.490Z,98435.83
2023-02-18T16:27:19.621Z,98433.64
2023-02-18T16:28:23.754Z,98432.83
2023-02-18T16:29:27.895Z,98424.81
2023-02-18T16:30:32.173Z,98427.08
2023-02-18T16:31:36.673Z,98420.8
2023-02-18T16:32:40.939Z,98423.59
2023-02-18T16:33:45.068Z,98415.56
2023-02-18T16:34:49.164Z,98409.78
2023-02-18T16:35:53.284Z,98403.94
2023-02-18T16:36:57.383Z,98395.92
2023-02-18T16:38:01.492Z,98405.28
2023-02-18T16:39:05.609Z,98409.29
2023-02-18T16:40:09.707Z,98402.81
2023-02-18T16:41:13.820Z,98405.48
2023-02-18T16:42:17.935Z,98415.86
2023-02-18T16:43:22.058Z,98411.36
2023-02-18T16:44:26.181Z,98409.9
2023-02-18T16:45:30.339Z,98414.31
2023-02-18T16:46:34.514Z,98403.02
2023-02-18T16:47:38.617Z,98416.17
2023-02-18T16:48:42.751Z,98414.84
2023-02-18T16:49:46.846Z,98408.97
2023-02-18T16:50:50.975Z,98416.7
2023-02-18T16:51:55.099Z,98411.56
2023-02-18T16:52:59.257Z,98401.06
2023-02-18T16:54:03.414Z,98403.86
2023-02-18T16:55:07.527Z,98404.34
2023-02-18T16:56:11.929Z,98410.02
2023-02-18T16:57:16.032Z,98407.43
2023-02-18T16:58:20.121Z,98406.21
2023-02-18T16:59:24.252Z,98402.31
2023-02-18T17:00:28.361Z,98411.03
2023-02-18T17:01:32.513Z,98408.77
2023-02-18T17:02:36.646Z,98406.3
2023-02-18T17:03:40.976Z,98417.31
2023-02-18T17:04:45.111Z,98407.95
2023-02-18T17:05:49.335Z,98406.09
2023-02-18T17:06:53.477Z,98409.29
2023-02-18T17:07:57.568Z,98417.31
2023-02-18T17:09:01.708Z,98412.38
2023-02-18T17:10:05.813Z,98399
2023-02-18T17:11:09.912Z,98412.89
2023-02-18T17:12:14.000Z,98393.86
2023-02-18T17:13:18.128Z,98396.2
2023-02-18T17:14:22.211Z,98387.48
2023-02-18T17:15:26.352Z,98403.3
2023-02-18T17:16:30.529Z,98406.05
2023-02-18T17:17:34.752Z,98402.56
2023-02-18T17:18:38.830Z,98404.3
2023-02-18T17:19:42.945Z,98409.53
2023-02-18T17:20:47.038Z,98412.81
2023-02-18T17:21:51.147Z,98423.01
2023-02-18T17:22:55.234Z,98412.7
2023-02-18T17:23:59.456Z,98417.13
2023-02-18T17:25:03.590Z,98411.77
2023-02-18T17:26:08.285Z,98418.54
2023-02-18T17:27:12.894Z,98414.43
2023-02-18T17:28:16.994Z,98404.06
2023-02-18T17:29:21.085Z,98429.15
2023-02-18T17:30:25.393Z,98415.77
2023-02-18T17:31:29.969Z,98426.56
2023-02-18T17:32:34.209Z,98421.02
2023-02-18T17:33:38.338Z,98414.16
2023-02-18T17:34:42.494Z,98417.52
2023-02-18T17:35:46.630Z,98422.67
2023-02-18T17:36:50.804Z,98416.72
2023-02-18T17:37:54.925Z,98421.25
2023-02-18T17:39:00.427Z,98424.21
2023-02-18T17:40:06.163Z,98410.34
2023-02-18T17:41:10.305Z,98421.14
2023-02-18T17:42:14.438Z,98436.37
2023-02-18T17:43:18.553Z,98427.38
2023-02-18T17:44:22.716Z,98438.19
2023-02-18T17:45:26.821Z,98448.04
2023-02-18T17:46:31.016Z,98442.59
2023-02-18T17:47:35.394Z,98447.21
2023-02-18T17:48:39.537Z,98429.58
2023-02-18T17:49:44.053Z,98427.64
2023-02-18T17:50:48.434Z,98435.77
2023-02-18T17:51:52.772Z,98437.61
2023-02-18T17:52:56.878Z,98441.22
2023-02-18T17:54:01.011Z,98433.83
2023-02-18T17:55:05.161Z,98435.58
2023-02-18T17:56:10.018Z,98447.7
2023-02-18T17:57:14.527Z,98431.25
2023-02-18T17:58:18.791Z,98437.73
2023-02-18T17:59:22.994Z,98450.7
2023-02-18T18:00:27.277Z,98440.66
2023-02-18T18:01:31.727Z,98445.88
2023-02-18T18:02:36.146Z,98451.56
2023-02-18T18:03:40.399Z,98451.04
2023-02-18T18:04:44.813Z,98449.82
2023-02-18T18:05:50.439Z,98453.7
2023-02-18T18:06:54.825Z,98456.18
2023-02-18T18:07:59.202Z,98451.95
2023-02-18T18:09:03.421Z,98460.26
2023-02-18T18:10:07.563Z,98460.15
2023-02-18T18:11:14.232Z,98471.37
2023-02-18T18:12:18.614Z,98468.69
2023-02-18T18:13:22.761Z,98466.63
2023-02-18T18:14:26.942Z,98466.42
2023-02-18T18:15:31.065Z,98465.3
2023-02-18T18:16:35.269Z,98463.34
2023-02-18T18:17:39.478Z,98468.98
2023-02-18T18:18:43.668Z,98461.08
2023-02-18T18:19:47.760Z,98468.09
2023-02-18T18:20:51.881Z,98467.85
2023-02-18T18:21:56.005Z,98457.27
2023-02-18T18:23:00.116Z,98465.5
2023-02-18T18:24:04.231Z,98460.8
2023-02-18T18:25:08.416Z,98467.48
2023-02-18T18:26:12.569Z,98475.08
2023-02-18T18:27:16.674Z,98477.26
2023-02-18T18:28:20.848Z,98485.08
2023-02-18T18:29:25.025Z,98480.62
2023-02-18T18:30:29.438Z,98487.19
2023-02-18T18:31:34.129Z,98478.42
2023-02-18T18:32:38.481Z,98473.72
2023-02-18T18:33:42.631Z,98483.88
2023-02-18T18:34:49.872Z,98489.52
2023-02-18T18:35:53.989Z,98488.38
2023-02-18T18:36:58.202Z,98490.53
2023-02-18T18:38:02.411Z,98487.9
2023-02-18T18:39:06.529Z,98490.14
2023-02-18T18:40:10.650Z,98495.61
2023-02-18T18:41:14.804Z,98504.16
2023-02-18T18:42:18.917Z,98507.45
2023-02-18T18:43:23.049Z,98510.01
2023-02-18T18:44:27.170Z,98514.43
2023-02-18T18:45:31.331Z,98506.52
2023-02-18T18:46:35.971Z,98509.2
2023-02-18T18:47:40.429Z,98507.58
2023-02-18T18:48:44.605Z,98513.34
2023-02-18T18:49:48.769Z,98508.91
2023-02-18T18:50:53.445Z,98509.52
2023-02-18T18:51:57.937Z,98519.42
2023-02-18T18:53:02.042Z,98524.58
2023-02-18T18:54:06.219Z,98516.75
2023-02-18T18:55:10.330Z,98506.58
2023-02-18T18:56:14.468Z,98516.23
2023-02-18T18:57:18.638Z,98517.37
2023-02-18T18:58:22.764Z,98521.38
2023-02-18T18:59:26.893Z,98517.77
2023-02-18T19:00:31.286Z,98512.53
2023-02-18T19:01:35.462Z,98510.75
2023-02-18T19:02:39.688Z,98507.13
2023-02-18T19:03:43.820Z,98507.24
2023-02-18T19:04:47.912Z,98493.95
2023-02-18T19:05:52.040Z,98502.29
2023-02-18T19:06:56.162Z,98515.75
2023-02-18T19:08:00.260Z,98519.11
2023-02-18T19:09:04.433Z,98516.03
2023-02-18T19:10:08.535Z,98517.58
2023-02-18T19:11:13.001Z,98522.2
2023-02-18T19:12:17.131Z,98513.88
2023-02-18T19:13:21.270Z,98526.45
2023-02-18T19:14:25.382Z,98517.89
2023-02-18T19:15:29.635Z,98527.47
2023-02-18T19:16:33.767Z,98527.27
2023-02-18T19:17:37.902Z,98517.61
2023-02-18T19:18:42.027Z,98522.97
2023-02-18T19:19:46.121Z,98528.83
2023-02-18T19:20:50.235Z,98524.31
2023-02-18T19:21:54.331Z,98528.13
2023-02-18T19:22:58.438Z,98521.77
2023-02-18T19:24:02.529Z,98525.53
2023-02-18T19:25:06.643Z,98527.07
2023-02-18T19:26:10.769Z,98539.03
2023-02-18T19:27:14.879Z,98530.68
2023-02-18T19:28:21.690Z,98525.8
2023-02-18T19:29:25.797Z,98530.34
2023-02-18T19:30:29.971Z,98545.06
2023-02-18T19:31:34.458Z,98540.51
2023-02-18T19:32:38.826Z,98533.3
2023-02-18T19:33:42.946Z,98545.83
2023-02-18T19:34:47.053Z,98540.27
2023-02-18T19:35:51.143Z,98547.3
2023-02-18T19:36:55.267Z,98541.73
2023-02-18T19:37:59.385Z,98548.95
2023-02-18T19:39:03.541Z,98544.82
2023-02-18T19:40:07.668Z,98553.58
2023-02-18T19:41:12.480Z,98555.04
2023-02-18T19:42:16.697Z,98546.69
2023-02-18T19:43:20.784Z,98555.77
2023-02-18T19:44:24.903Z,98558.13
2023-02-18T19:45:28.986Z,98548.23
2023-02-18T19:46:33.290Z,98564.1
2023-02-18T19:47:37.421Z,98554.77
2023-02-18T19:48:41.526Z,98555.17
2023-02-18T19:49:45.740Z,98564.62
2023-02-18T19:50:49.866Z,98561.75
2023-02-18T19:51:53.950Z,98562.88
2023-02-18T19:52:58.046Z,98561.73
2023-02-18T19:54:02.222Z,98558.53
2023-02-18T19:55:06.337Z,98564.28
2023-02-18T19:56:10.427Z,98570.66
2023-02-18T19:57:14.580Z,98565.83
2023-02-18T19:58:18.680Z,98563.56
2023-02-18T19:59:22.804Z,98563.97
2023-02-18T20:00:26.904Z,98572.2
2023-02-18T20:01:31.127Z,98567.05
2023-02-18T20:02:35.309Z,98564.7
2023-02-18T20:03:39.456Z,98572.65
2023-02-18T20:04:43.547Z,98583.23
2023-02-18T20:05:47.681Z,98572.33
2023-02-18T20:06:51.878Z,98585.84
2023-02-18T20:07:55.972Z,98579.23
2023-02-18T20:09:00.145Z,98571.64
2023-02-18T20:10:04.266Z,98581.5
2023-02-18T20:11:09.065Z,98584.5
2023-02-18T20:12:13.824Z,98584.99
2023-02-18T20:13:17.934Z,98587.67
2023-02-18T20:14:22.051Z,98583.45
2023-02-18T20:15:26.172Z,98575.82
2023-02-18T20:16:30.291Z,98577.67
2023-02-18T20:17:34.403Z,98588.91
2023-02-18T20:18:38.528Z,98588.91
2023-02-18T20:19:42.645Z,98585.09
2023-02-18T20:20:46.753Z,98588.08
2023-02-18T20:21:50.861Z,98585.91
2023-02-18T20:22:54.952Z,98587.36
2023-02-18T20:23:59.197Z,98568.79
2023-02-18T20:25:03.339Z,98586.14
2023-02-18T20:26:07.445Z,98587.33
2023-02-18T20:27:11.594Z,98599.62
2023-02-18T20:28:15.690Z,98587.25
2023-02-18T20:29:19.810Z,98593.63
2023-02-18T20:30:23.994Z,98586
2023-02-18T20:31:28.449Z,98586.32
2023-02-18T20:32:32.868Z,98576.86
2023-02-18T20:33:36.995Z,98583.45
2023-02-18T20:34:41.106Z,98590.78
2023-02-18T20:35:45.271Z,98588.27
2023-02-18T20:36:49.584Z,98585.59
2023-02-18T20:37:53.824Z,98595.37
2023-02-18T20:39:15.490Z,98596.41
2023-02-18T20:40:20.081Z,98596.18
2023-02-18T20:41:24.328Z,98593.94
2023-02-18T20:42:28.460Z,98601.67
2023-02-18T20:43:32.591Z,98599.41
2023-02-18T20:44:36.689Z,98603.1
2023-02-18T20:45:40.790Z,98597.45
2023-02-18T20:46:45.065Z,98593.44
2023-02-18T20:47:49.464Z,98601.67
2023-02-18T20:48:53.589Z,98603.63
2023-02-18T20:49:57.665Z,98595.39
2023-02-18T20:51:01.764Z,98591.58
2023-02-18T20:52:05.904Z,98590.96
2023-02-18T20:53:10.039Z,98590.52
2023-02-18T20:54:14.173Z,98591.25
2023-02-18T20:55:18.275Z,98592.59
2023-02-18T20:56:22.403Z,98591.45
2023-02-18T20:57:26.538Z,98594.85
2023-02-18T20:58:30.662Z,98595.27
2023-02-18T20:59:34.839Z,98602.97
2023-02-18T21:00:38.962Z,98612.75
2023-02-18T21:01:43.252Z,98587.42
2023-02-18T21:02:47.487Z,98614.41
2023-02-18T21:03:51.750Z,98618.44
2023-02-18T21:04:55.875Z,98616.5
2023-02-18T21:05:59.967Z,98626.27
2023-02-18T21:07:04.073Z,98628.55
2023-02-18T21:08:08.208Z,98625.98
2023-02-18T21:09:12.341Z,98634.76
2023-02-18T21:10:16.522Z,98626.17
2023-02-18T21:11:20.622Z,98649.75
2023-02-18T21:12:24.706Z,98659.88
2023-02-18T21:13:28.809Z,98661.63
2023-02-18T21:14:32.918Z,98673.77
2023-02-18T21:15:37.114Z,98680.91
2023-02-18T21:16:41.253Z,98678.11
2023-02-18T21:17:45.388Z,98693.16
2023-02-18T21:18:49.496Z,98700.59
2023-02-18T21:19:53.583Z,98724.58
2023-02-18T21:20:57.700Z,98725.68
2023-02-18T21:22:01.843Z,98724.14
2023-02-18T21:23:05.927Z,98720.44
2023-02-18T21:24:10.028Z,98730.1
2023-02-18T21:25:14.109Z,98718.57
2023-02-18T21:26:18.267Z,98721.28
2023-02-18T21:27:22.401Z,98736.39
2023-02-18T21:28:26.530Z,98734.23
2023-02-18T21:29:30.648Z,98735.49
2023-02-18T21:30:34.775Z,98729.49
2023-02-18T21:31:39.528Z,98731.77
2023-02-18T21:32:43.994Z,98733.22
2023-02-18T21:33:48.102Z,98737.85
2023-02-18T21:34:52.271Z,98715.52
2023-02-18T21:35:56.391Z,98726.23
2023-02-18T21:37:00.483Z,98735.61
2023-02-18T21:38:04.590Z,98734.88
2023-02-18T21:39:08.678Z,98740.53
2023-02-18T21:40:12.784Z,98732.61
2023-02-18T21:41:16.879Z,98733.42
2023-02-18T21:42:20.991Z,98736.72
2023-02-18T21:43:25.087Z,98741.55
2023-02-18T21:44:43.004Z,98733.83
2023-02-18T21:45:47.226Z,98737.81
2023-02-18T21:46:51.375Z,98749.27
2023-02-18T21:47:55.572Z,98751.62
2023-02-18T21:48:59.688Z,98750.89
2023-02-18T21:50:03.827Z,98742.97
2023-02-18T21:51:08.641Z,98752.14
2023-02-18T21:52:13.280Z,98758.03
2023-02-18T21:53:17.383Z,98751.73
2023-02-18T21:54:21.515Z,98748.66
2023-02-18T21:55:27.181Z,98752.75
2023-02-18T21:56:31.308Z,98752.79
2023-02-18T21:57:35.412Z,98768.42
2023-02-18T21:58:39.525Z,98759.45
2023-02-18T21:59:43.683Z,98766.68
2023-02-18T22:00:47.872Z,98773.58
2023-02-18T22:01:52.127Z,98767.73
2023-02-18T22:02:56.339Z,98764.52
2023-02-18T22:04:00.562Z,98777.92
2023-02-18T22:05:04.668Z,98769.36
2023-02-18T22:06:08.754Z,98781.09
2023-02-18T22:07:12.961Z,98784.83
2023-02-18T22:08:17.096Z,98780.89
2023-02-18T22:09:21.260Z,98777.4
2023-02-18T22:10:25.387Z,98791.7
2023-02-18T22:11:29.639Z,98783.04
2023-02-18T22:12:33.828Z,98790.15
2023-02-18T22:13:37.950Z,98782.84
2023-02-18T22:14:42.073Z,98789.63
2023-02-18T22:15:46.205Z,98786.34
2023-02-18T22:16:50.317Z,98798.52
2023-02-18T22:17:54.438Z,98801.28
2023-02-18T22:18:58.538Z,98795.22
2023-02-18T22:20:02.670Z,98804.8
2023-02-18T22:21:06.756Z,98797.7
2023-02-18T22:22:11.351Z,98794.5
2023-02-18T22:23:15.455Z,98785.23
2023-02-18T22:24:19.599Z,98790.19
2023-02-18T22:25:23.723Z,98799.13
2023-02-18T22:26:27.825Z,98810.69
2023-02-18T22:27:31.930Z,98809.96
2023-02-18T22:28:36.038Z,98818.09
2023-02-18T22:29:40.175Z,98810.58
2023-02-18T22:30:44.339Z,98811.09
2023-02-18T22:31:48.631Z,98820.16
2023-02-18T22:32:52.911Z,98818.81
2023-02-18T22:33:57.032Z,98812.32
2023-02-18T22:35:01.129Z,98813.25
2023-02-18T22:36:05.263Z,98825.92
2023-02-18T22:37:09.362Z,98822.72
2023-02-18T22:38:13.473Z,98818.17
2023-02-18T22:39:17.586Z,98828.38
2023-02-18T22:40:21.706Z,98830.56
2023-02-18T22:41:25.836Z,98835.48
2023-02-18T22:42:29.922Z,98840.43
2023-02-18T22:43:34.023Z,98838.07
2023-02-18T22:44:38.121Z,98839.58
2023-02-18T22:45:42.278Z,98841.56
2023-02-18T22:46:46.460Z,98845.27
2023-02-18T22:47:50.605Z,98839.3
2023-02-18T22:48:54.702Z,98837.14
2023-02-18T22:49:58.804Z,98841.97
2023-02-18T22:51:02.912Z,98840.23
2023-02-18T22:52:07.184Z,98841.89
2023-02-18T22:53:11.277Z,98840.23
2023-02-18T22:54:15.425Z,98842.3
2023-02-18T22:55:19.514Z,98844.05
2023-02-18T22:56:23.629Z,98848.8
2023-02-18T22:57:27.770Z,98857.33
2023-02-18T22:58:31.873Z,98852.3
2023-02-18T22:59:35.993Z,98850.95
2023-02-18T23:00:40.210Z,98852.81
2023-02-18T23:01:44.515Z,98857.77
2023-02-18T23:02:48.627Z,98861.38
2023-02-18T23:03:52.828Z,98860.73
2023-02-18T23:04:57.029Z,98860.25
2023-02-18T23:06:01.139Z,98857.53
2023-02-18T23:07:05.444Z,98860.13
2023-02-18T23:08:09.731Z,98845.91
2023-02-18T23:09:13.834Z,98862.61
2023-02-18T23:10:17.944Z,98860.86
2023-02-18T23:11:22.038Z,98858.09
2023-02-18T23:12:26.142Z,98869.02
2023-02-18T23:13:30.273Z,98861.67
2023-02-18T23:14:34.427Z,98866.95
2023-02-18T23:15:38.555Z,98873.94
2023-02-18T23:16:42.757Z,98864.47
2023-02-18T23:17:46.941Z,98869.95
2023-02-18T23:18:51.060Z,98867.96
2023-02-18T23:19:55.187Z,98868.89
2023-02-18T23:20:59.380Z,98879.33
2023-02-18T23:22:03.540Z,98872.82
2023-02-18T23:23:07.673Z,98871.6
2023-02-18T23:24:11.876Z,98876.23
2023-02-18T23:25:15.982Z,98875.09
2023-02-18T23:26:20.076Z,98878.3
2023-02-18T23:27:24.201Z,98888.48
2023-02-18T23:28:28.307Z,98887.87
2023-02-18T23:29:32.435Z,98898.72
2023-02-18T23:30:36.822Z,98889.01
2023-02-18T23:31:41.379Z,98890.46
2023-02-18T23:32:45.829Z,98889.83
2023-02-18T23:33:49.935Z,98901.47
2023-02-18T23:34:54.056Z,98904.68
2023-02-18T23:35:58.144Z,98897.69
2023-02-18T23:37:02.255Z,98902.4
2023-02-18T23:38:06.417Z,98905.92
2023-02-18T23:39:10.523Z,98905.72
2023-02-18T23:40:14.917Z,98905.19
2023-02-18T23:41:19.041Z,98912
2023-02-18T23:42:23.132Z,98920.77
2023-02-18T23:43:27.248Z,98918.91
2023-02-18T23:44:31.336Z,98921.7
2023-02-18T23:45:35.470Z,98924.47
2023-02-18T23:46:39.570Z,98922.51
2023-02-18T23:47:43.674Z,98923.94
2023-02-18T23:48:47.792Z,98923.31
2023-02-18T23:49:51.912Z,98912.91
2023-02-18T23:50:56.042Z,98923.63
2023-02-18T23:52:00.139Z,98923.95
2023-02-18T23:53:04.241Z,98917.66
2023-02-18T23:54:08.364Z,98929.81
2023-02-18T23:55:12.486Z,98929.52
2023-02-18T23:56:16.596Z,98927.03
2023-02-18T23:57:20.783Z,98927.44
2023-02-18T23:58:24.897Z,98929.83
2023-02-18T23:59:28.985Z,98933.52
